createdAt,value
2019-02-09T00:03:49.512Z,72.62
2019-02-09T00:06:17.880Z,72.56
2019-02-09T00:09:05.508Z,73.50
2019-02-09T00:11:53.128Z,73.82
2019-02-09T00:14:40.736Z,73.69
2019-02-09T00:17:28.456Z,73.94
2019-02-09T00:19:56.877Z,74.75
2019-02-09T00:22:25.257Z,75.54
2019-02-09T00:25:12.752Z,75.93
2019-02-09T00:27:41.367Z,76.65
2019-02-09T00:30:49.651Z,76.60
2019-02-09T00:33:18.192Z,76.84
2019-02-09T00:36:05.806Z,78.50
2019-02-09T00:38:34.196Z,78.62
2019-02-09T00:41:02.569Z,80.38
2019-02-09T00:43:30.947Z,80.73
2019-02-09T00:46:18.570Z,81.52
2019-02-09T00:48:46.946Z,81.89
2019-02-09T00:51:34.457Z,82.43
2019-02-09T00:54:02.801Z,82.46
2019-02-09T00:57:11.078Z,83.39
2019-02-09T00:59:39.526Z,83.68
2019-02-09T01:02:27.229Z,84.33
2019-02-09T01:04:55.607Z,83.77
2019-02-09T01:07:23.979Z,85.17
2019-02-09T01:12:45.712Z,85.77
2019-02-09T01:15:53.996Z,85.67
2019-02-09T01:18:22.376Z,85.68
2019-02-09T01:21:09.990Z,85.33
2019-02-09T01:23:38.364Z,85.47
2019-02-09T01:26:25.849Z,86.04
2019-02-09T01:28:54.226Z,86.05
2019-02-09T01:34:33.913Z,85.27
2019-02-09T01:37:02.283Z,84.83
2019-02-09T01:39:49.905Z,84.79
2019-02-09T01:42:18.278Z,84.94
2019-02-09T01:45:05.779Z,84.72
2019-02-09T01:47:34.144Z,84.87
2019-02-09T01:50:21.732Z,85.51
2019-02-09T01:56:03.940Z,85.76
2019-02-09T01:58:32.578Z,86.59
2019-02-09T02:01:00.944Z,86.62
2019-02-09T02:03:48.573Z,87.08
2019-02-09T02:06:36.285Z,87.20
2019-02-09T02:09:44.573Z,87.18
2019-02-09T02:15:02.023Z,88.12
2019-02-09T02:17:30.385Z,88.46
2019-02-09T02:19:58.777Z,88.41
2019-02-09T02:22:27.150Z,89.13
2019-02-09T02:27:48.270Z,89.24
2019-02-09T02:30:56.561Z,88.88
2019-02-09T02:33:24.935Z,89.43
2019-02-09T02:35:53.310Z,89.74
2019-02-09T02:38:21.993Z,89.53
2019-02-09T02:41:09.715Z,90.50
2019-02-09T02:43:38.090Z,90.27
2019-02-09T02:46:25.597Z,90.46
2019-02-09T02:48:53.978Z,89.98
2019-02-09T02:51:22.371Z,90.02
2019-02-09T02:53:50.724Z,89.77
2019-02-09T02:59:25.875Z,89.24
2019-02-09T03:02:13.487Z,89.36
2019-02-09T03:05:01.205Z,89.57
2019-02-09T03:07:48.732Z,89.42
2019-02-09T03:10:56.984Z,89.64
2019-02-09T03:13:25.356Z,89.70
2019-02-09T03:15:53.729Z,90.18
2019-02-09T03:18:41.214Z,90.67
2019-02-09T03:21:09.594Z,91.34
2019-02-09T03:23:57.220Z,91.60
2019-02-09T03:26:44.703Z,91.69
2019-02-09T03:29:13.077Z,91.39
2019-02-09T03:32:00.695Z,91.33
2019-02-09T03:34:48.416Z,91.59
2019-02-09T03:40:44.132Z,91.24
2019-02-09T03:43:31.743Z,91.17
2019-02-09T03:46:19.458Z,91.47
2019-02-09T03:48:47.828Z,91.79
2019-02-09T03:51:16.200Z,92.41
2019-02-09T03:54:03.680Z,92.29
2019-02-09T03:56:51.173Z,91.77
2019-02-09T03:59:19.889Z,91.56
2019-02-09T04:01:48.259Z,91.89
2019-02-09T04:04:16.692Z,91.43
2019-02-09T04:06:45.063Z,90.89
2019-02-09T04:09:13.429Z,90.93
2019-02-09T04:12:01.146Z,90.90
2019-02-09T04:17:03.449Z,91.26
2019-02-09T04:19:31.827Z,91.04
2019-02-09T04:22:19.532Z,90.87
2019-02-09T04:24:47.913Z,90.93
2019-02-09T04:27:16.275Z,90.63
2019-02-09T04:29:44.648Z,90.27
2019-02-09T04:32:32.365Z,89.63
2019-02-09T04:35:19.853Z,89.38
2019-02-09T04:37:48.228Z,89.50
2019-02-09T04:40:56.513Z,89.04
2019-02-09T04:43:24.884Z,88.67
2019-02-09T04:46:12.509Z,89.36
2019-02-09T04:49:00.358Z,89.61
2019-02-09T04:51:28.735Z,89.26
2019-02-09T04:54:16.349Z,89.57
2019-02-09T04:59:38.270Z,89.51
2019-02-09T05:02:25.897Z,89.61
2019-02-09T05:04:54.276Z,89.62
2019-02-09T05:07:22.640Z,90.30
2019-02-09T05:10:10.137Z,90.39
2019-02-09T05:12:38.509Z,89.91
2019-02-09T05:15:26.224Z,89.31
2019-02-09T05:17:54.588Z,89.98
2019-02-09T05:21:02.884Z,90.05
2019-02-09T05:23:31.253Z,89.85
2019-02-09T05:26:39.545Z,89.94
2019-02-09T05:29:07.919Z,89.85
2019-02-09T05:31:55.550Z,90.30
2019-02-09T05:34:23.922Z,90.95
2019-02-09T05:37:11.541Z,91.22
2019-02-09T05:39:39.934Z,91.59
2019-02-09T05:42:27.624Z,91.50
2019-02-09T05:45:35.919Z,91.18
2019-02-09T05:48:23.409Z,91.10
2019-02-09T05:50:51.782Z,90.67
2019-02-09T05:56:26.939Z,90.51
2019-02-09T05:58:55.302Z,90.02
2019-02-09T06:01:43.031Z,90.24
2019-02-09T06:04:30.512Z,90.03
2019-02-09T06:09:32.552Z,89.88
2019-02-09T06:12:20.046Z,90.08
2019-02-09T06:15:07.528Z,90.13
2019-02-09T06:17:55.024Z,90.39
2019-02-09T06:21:03.329Z,90.54
2019-02-09T06:23:31.723Z,90.35
2019-02-09T06:26:00.369Z,90.58
2019-02-09T06:28:28.802Z,90.51
2019-02-09T06:30:57.170Z,91.17
2019-02-09T06:33:25.548Z,91.17
2019-02-09T06:35:53.924Z,91.79
2019-02-09T06:38:41.645Z,92.20
2019-02-09T06:41:10.026Z,92.05
2019-02-09T06:43:38.403Z,91.83
2019-02-09T06:46:06.783Z,91.02
2019-02-09T06:48:54.267Z,91.20
2019-02-09T06:53:56.867Z,91.06
2019-02-09T06:56:44.488Z,91.41
2019-02-09T06:59:12.856Z,90.90
2019-02-09T07:02:00.482Z,90.87
2019-02-09T07:04:28.854Z,90.37
2019-02-09T07:07:16.473Z,90.82
2019-02-09T07:10:04.093Z,90.71
2019-02-09T07:12:32.470Z,91.05
2019-02-09T07:15:00.831Z,91.31
2019-02-09T07:17:29.209Z,90.96
2019-02-09T07:19:57.572Z,90.39
2019-02-09T07:25:00.318Z,89.87
2019-02-09T07:30:02.354Z,90.22
2019-02-09T07:32:30.738Z,89.84
2019-02-09T07:34:59.101Z,89.21
2019-02-09T07:37:27.479Z,88.73
2019-02-09T07:40:14.960Z,88.65
2019-02-09T07:42:43.333Z,88.42
2019-02-09T07:45:51.609Z,88.04
2019-02-09T07:48:19.988Z,87.79
2019-02-09T07:50:48.367Z,87.41
2019-02-09T07:53:16.747Z,87.04
2019-02-09T07:55:45.112Z,87.21
2019-02-09T07:58:13.484Z,87.20
2019-02-09T08:01:01.150Z,86.90
2019-02-09T08:03:48.874Z,85.84
2019-02-09T08:06:36.484Z,85.31
2019-02-09T08:09:44.771Z,85.16
2019-02-09T08:12:13.139Z,84.45
2019-02-09T08:15:00.752Z,84.17
2019-02-09T08:17:29.133Z,84.29
2019-02-09T08:19:57.735Z,83.24
2019-02-09T08:22:45.235Z,81.89
2019-02-09T08:25:53.570Z,79.87
2019-02-09T08:30:56.359Z,74.22
2019-02-09T08:33:24.738Z,71.37
2019-02-09T08:36:12.356Z,68.76
2019-02-09T08:41:14.337Z,64.51
2019-02-09T08:43:42.724Z,65.83
2019-02-09T08:49:17.881Z,68.39
2019-02-09T08:52:05.366Z,68.69
2019-02-09T08:54:52.994Z,70.42
2019-02-09T08:57:21.369Z,71.02
2019-02-09T09:02:56.297Z,72.54
2019-02-09T09:08:24.410Z,69.20
2019-02-09T09:11:12.026Z,67.30
2019-02-09T09:16:14.374Z,62.56
2019-02-09T09:18:42.753Z,59.54
2019-02-09T09:21:11.133Z,57.81
2019-02-09T09:23:39.534Z,57.08
2019-02-09T09:26:47.800Z,55.95
2019-02-09T09:29:35.296Z,54.02
2019-02-09T09:35:51.646Z,52.23
2019-02-09T09:38:39.147Z,51.99
2019-02-09T09:41:26.633Z,53.34
2019-02-09T09:43:55.015Z,54.11
2019-02-09T09:49:29.956Z,52.58
2019-02-09T09:51:58.326Z,52.00
2019-02-09T09:54:45.955Z,53.14
2019-02-09T09:57:33.574Z,55.74
2019-02-09T10:00:21.201Z,55.96
2019-02-09T10:03:29.735Z,56.21
2019-02-09T10:06:17.223Z,58.43
2019-02-09T10:08:45.602Z,58.91
2019-02-09T10:11:33.090Z,59.14
2019-02-09T10:14:20.729Z,59.53
2019-02-09T10:19:55.665Z,60.56
2019-02-09T10:22:43.151Z,61.90
2019-02-09T10:25:51.437Z,63.23
2019-02-09T10:28:39.064Z,64.44
2019-02-09T10:31:26.770Z,64.49
2019-02-09T10:34:14.388Z,64.62
2019-02-09T10:36:42.756Z,64.34
2019-02-09T10:39:11.132Z,63.85
2019-02-09T10:41:39.503Z,64.35
2019-02-09T10:47:02.443Z,63.63
2019-02-09T10:49:50.071Z,62.85
2019-02-09T10:52:19.164Z,63.51
2019-02-09T11:00:58.052Z,62.14
2019-02-09T11:06:14.107Z,62.02
2019-02-09T11:08:42.483Z,62.40
2019-02-09T11:11:30.065Z,60.99
2019-02-09T11:13:58.469Z,60.89
2019-02-09T11:16:46.082Z,61.36
2019-02-09T11:19:14.462Z,61.66
2019-02-09T11:22:02.083Z,61.24
2019-02-09T11:24:30.468Z,61.08
2019-02-09T11:26:58.842Z,59.82
2019-02-09T11:29:27.222Z,59.77
2019-02-09T11:31:55.606Z,59.15
2019-02-09T11:34:43.221Z,58.27
2019-02-09T11:37:11.593Z,57.61
2019-02-09T11:39:59.085Z,59.14
2019-02-09T11:42:27.459Z,59.22
2019-02-09T11:44:56.347Z,58.96
2019-02-09T11:47:25.940Z,59.58
2019-02-09T11:49:54.323Z,60.32
2019-02-09T11:55:50.055Z,60.79
2019-02-09T11:58:18.438Z,58.78
2019-02-09T12:01:26.733Z,58.42
2019-02-09T12:03:55.123Z,59.36
2019-02-09T12:06:23.502Z,58.61
2019-02-09T12:09:10.990Z,59.88
2019-02-09T12:11:39.403Z,64.01
2019-02-09T12:14:07.744Z,67.19
2019-02-09T12:16:36.124Z,66.23
2019-02-09T12:19:44.412Z,66.28
2019-02-09T12:22:12.785Z,65.08
2019-02-09T12:24:41.152Z,64.67
2019-02-09T12:27:09.525Z,65.53
2019-02-09T12:29:37.894Z,64.81
2019-02-09T12:37:54.684Z,64.18
2019-02-09T12:41:02.968Z,64.81
2019-02-09T12:43:31.330Z,65.19
2019-02-09T12:45:59.709Z,65.08
2019-02-09T12:48:28.087Z,64.77
2019-02-09T12:53:30.841Z,64.41
2019-02-09T12:55:59.217Z,64.00
2019-02-09T12:58:27.584Z,64.91
2019-02-09T13:01:15.086Z,64.91
2019-02-09T13:03:43.453Z,65.64
2019-02-09T13:06:31.149Z,65.99
2019-02-09T13:08:59.522Z,66.68
2019-02-09T13:11:47.012Z,66.90
2019-02-09T13:14:15.378Z,66.77
2019-02-09T13:16:44.006Z,66.30
2019-02-09T13:19:31.505Z,65.78
2019-02-09T13:22:19.000Z,65.45
2019-02-09T13:25:06.492Z,65.72
2019-02-09T13:27:34.874Z,65.95
2019-02-09T13:33:51.227Z,63.85
2019-02-09T13:36:19.600Z,63.50
2019-02-09T13:38:47.971Z,64.04
2019-02-09T13:41:16.345Z,62.15
2019-02-09T13:43:44.721Z,61.67
2019-02-09T13:46:13.095Z,61.72
2019-02-09T13:48:41.474Z,63.92
2019-02-09T13:51:29.089Z,68.39
2019-02-09T13:54:16.717Z,71.27
2019-02-09T13:57:04.210Z,75.16
2019-02-09T14:00:12.490Z,76.38
2019-02-09T14:03:20.783Z,78.44
2019-02-09T14:05:49.151Z,79.92
2019-02-09T14:08:17.526Z,78.84
2019-02-09T14:11:05.009Z,76.55
2019-02-09T14:13:33.379Z,75.87
2019-02-09T14:16:20.865Z,75.36
2019-02-09T14:18:49.239Z,72.95
2019-02-09T14:21:17.611Z,73.11
2019-02-09T14:24:05.100Z,70.93
2019-02-09T14:26:33.472Z,70.75
2019-02-09T14:29:21.107Z,67.45
2019-02-09T14:32:08.599Z,64.43
2019-02-09T14:34:36.973Z,63.58
2019-02-09T14:42:39.099Z,63.16
2019-02-09T14:45:47.376Z,63.64
2019-02-09T14:53:23.632Z,63.79
2019-02-09T14:56:11.249Z,62.95
2019-02-09T14:58:58.872Z,63.67
2019-02-09T15:01:27.239Z,62.79
2019-02-09T15:04:02.692Z,62.24
2019-02-09T15:06:25.697Z,62.18
2019-02-09T15:09:13.192Z,62.64
2019-02-09T15:11:41.556Z,63.68
2019-02-09T15:14:09.939Z,63.40
2019-02-09T15:19:46.378Z,63.14
2019-02-09T15:22:33.869Z,63.71
2019-02-09T15:25:02.240Z,63.37
2019-02-09T15:27:30.611Z,65.76
2019-02-09T15:29:58.992Z,64.84
2019-02-09T15:35:58.631Z,67.18
2019-02-09T15:38:27.039Z,67.61
2019-02-09T15:40:55.416Z,68.46
2019-02-09T15:43:43.040Z,69.40
2019-02-09T15:46:30.525Z,70.13
2019-02-09T15:49:18.020Z,71.19
2019-02-09T15:51:46.384Z,71.55
2019-02-09T15:54:14.760Z,72.48
2019-02-09T15:57:02.248Z,72.51
2019-02-09T15:59:30.630Z,74.23
2019-02-09T16:01:59.008Z,75.67
2019-02-09T16:04:27.383Z,78.09
2019-02-09T16:07:15.001Z,79.65
2019-02-09T16:09:43.394Z,81.61
2019-02-09T16:12:30.883Z,82.52
2019-02-09T16:15:18.378Z,83.19
2019-02-09T16:18:05.993Z,84.44
2019-02-09T16:21:14.283Z,83.68
2019-02-09T16:23:42.653Z,83.90
2019-02-09T16:26:33.099Z,83.71
2019-02-09T16:29:01.466Z,84.15
2019-02-09T16:31:30.085Z,82.09
2019-02-09T16:34:25.172Z,81.11
2019-02-09T16:37:06.923Z,81.35
2019-02-09T16:39:35.316Z,81.22
2019-02-09T16:45:51.678Z,81.87
2019-02-09T16:48:20.050Z,82.52
2019-02-09T16:53:22.857Z,83.77
2019-02-09T16:55:51.239Z,83.43
2019-02-09T16:58:38.721Z,83.20
2019-02-09T17:06:33.866Z,82.15
2019-02-09T17:11:51.323Z,81.71
2019-02-09T17:14:38.809Z,81.42
2019-02-09T17:17:07.194Z,81.01
2019-02-09T17:19:35.558Z,81.15
2019-02-09T17:24:58.287Z,79.98
2019-02-09T17:27:45.788Z,79.50
2019-02-09T17:30:54.075Z,78.44
2019-02-09T17:33:41.695Z,78.88
2019-02-09T17:36:29.192Z,78.40
2019-02-09T17:39:16.673Z,78.04
2019-02-09T17:41:45.052Z,77.78
2019-02-09T17:44:13.427Z,77.60
2019-02-09T17:46:41.808Z,76.95
2019-02-09T17:49:31.185Z,76.78
2019-02-09T17:52:18.826Z,76.73
2019-02-09T17:54:47.200Z,77.24
2019-02-09T17:57:34.901Z,77.43
2019-02-09T18:06:06.391Z,77.02
2019-02-09T18:08:34.776Z,77.06
2019-02-09T18:13:37.797Z,76.62
2019-02-09T18:16:06.175Z,76.11
2019-02-09T18:18:53.793Z,76.07
2019-02-09T18:21:22.170Z,75.43
2019-02-09T18:23:50.542Z,74.70
2019-02-09T18:26:38.038Z,74.86
2019-02-09T18:29:06.405Z,74.66
2019-02-09T18:31:34.786Z,74.01
2019-02-09T18:34:03.159Z,73.82
2019-02-09T18:36:31.529Z,73.62
2019-02-09T18:38:59.922Z,73.47
2019-02-09T18:41:28.307Z,72.87
2019-02-09T18:46:30.381Z,72.61
2019-02-09T18:49:17.873Z,72.94
2019-02-09T18:52:05.379Z,73.30
2019-02-09T18:54:33.758Z,74.17
2019-02-09T18:57:02.142Z,75.40
2019-02-09T18:59:49.773Z,75.75
2019-02-09T19:02:38.626Z,76.56
2019-02-09T19:05:47.553Z,76.98
2019-02-09T19:08:15.948Z,78.15
2019-02-09T19:11:03.562Z,78.92
2019-02-09T19:13:31.945Z,79.53
2019-02-09T19:16:19.577Z,79.35
2019-02-09T19:18:47.986Z,79.71
2019-02-09T19:21:16.353Z,81.78
2019-02-09T19:24:42.451Z,82.20
2019-02-09T19:27:10.822Z,82.11
2019-02-09T19:29:58.317Z,81.98
2019-02-09T19:32:45.817Z,81.78
2019-02-09T19:35:54.111Z,81.76
2019-02-09T19:38:41.609Z,81.99
2019-02-09T19:41:29.257Z,82.03
2019-02-09T19:43:57.669Z,81.80
2019-02-09T19:46:26.051Z,81.51
2019-02-09T19:49:13.778Z,81.76
2019-02-09T19:52:01.393Z,81.42
2019-02-09T19:54:29.846Z,80.64
2019-02-09T19:57:17.516Z,80.05
2019-02-09T19:59:45.894Z,79.33
2019-02-09T20:02:33.514Z,79.04
2019-02-09T20:07:55.560Z,78.40
2019-02-09T20:11:03.896Z,78.35
2019-02-09T20:16:06.832Z,77.23
2019-02-09T20:18:35.216Z,77.65
2019-02-09T20:21:03.585Z,78.11
2019-02-09T20:23:51.094Z,78.13
2019-02-09T20:26:38.583Z,77.81
2019-02-09T20:29:26.209Z,78.09
2019-02-09T20:32:13.829Z,76.77
2019-02-09T20:35:01.469Z,76.77
2019-02-09T20:37:48.953Z,76.99
2019-02-09T20:40:55.918Z,77.23
2019-02-09T20:43:24.304Z,77.11
2019-02-09T20:45:52.730Z,77.01
2019-02-09T20:48:40.238Z,77.08
2019-02-09T20:51:08.630Z,76.64
2019-02-09T20:53:56.153Z,76.38
2019-02-09T20:56:24.560Z,76.87
2019-02-09T20:59:12.187Z,76.40
2019-02-09T21:01:59.715Z,75.83
2019-02-09T21:04:28.078Z,75.73
2019-02-09T21:09:43.889Z,75.84
2019-02-09T21:12:12.280Z,75.99
2019-02-09T21:14:40.700Z,76.00
2019-02-09T21:17:09.074Z,75.47
2019-02-09T21:19:37.725Z,75.81
2019-02-09T21:22:45.963Z,75.23
2019-02-09T21:25:54.367Z,75.22
2019-02-09T21:28:41.981Z,74.70
2019-02-09T21:31:10.366Z,74.91
2019-02-09T21:33:58.081Z,75.23
2019-02-09T21:36:45.777Z,75.36
2019-02-09T21:39:34.117Z,75.72
2019-02-09T21:42:22.954Z,75.90
2019-02-09T21:44:51.347Z,75.98
2019-02-09T21:47:38.838Z,75.94
2019-02-09T21:50:47.127Z,75.94
2019-02-09T21:53:34.747Z,75.86
2019-02-09T21:56:03.131Z,75.93
2019-02-09T21:58:50.751Z,76.02
2019-02-09T22:01:19.135Z,76.16
2019-02-09T22:03:47.578Z,76.16
2019-02-09T22:06:15.959Z,76.65
2019-02-09T22:08:44.408Z,76.75
2019-02-09T22:11:12.981Z,76.58
2019-02-09T22:13:41.378Z,75.91
2019-02-09T22:19:03.287Z,76.32
2019-02-09T22:21:51.270Z,76.19
2019-02-09T22:24:21.030Z,76.19
2019-02-09T22:27:08.748Z,76.53
2019-02-09T22:29:57.919Z,76.90
2019-02-09T22:32:26.333Z,77.30
2019-02-09T22:35:13.981Z,77.39
2019-02-09T22:38:01.678Z,77.51
2019-02-09T22:41:09.977Z,78.17
2019-02-09T22:46:25.809Z,78.25
2019-02-09T22:48:54.184Z,78.73
2019-02-09T22:53:57.187Z,78.25
2019-02-09T22:59:00.096Z,78.42
2019-02-09T23:01:47.995Z,79.01
2019-02-09T23:04:56.279Z,79.34
2019-02-09T23:07:24.656Z,79.16
2019-02-09T23:10:12.278Z,78.88
2019-02-09T23:12:59.982Z,79.23
2019-02-09T23:15:47.600Z,79.46
2019-02-09T23:18:35.348Z,79.51
2019-02-09T23:21:03.723Z,79.78
2019-02-09T23:23:54.574Z,80.00
2019-02-09T23:26:42.204Z,80.46
2019-02-09T23:29:29.824Z,80.12
2019-02-09T23:31:58.225Z,80.43
2019-02-09T23:34:26.601Z,80.38
2019-02-09T23:36:54.980Z,80.25
2019-02-09T23:39:23.403Z,79.54
2019-02-09T23:42:11.134Z,79.96
2019-02-09T23:44:39.504Z,79.80
2019-02-09T23:49:42.094Z,79.68
2019-02-09T23:52:10.723Z,80.07
2019-02-09T23:57:32.243Z,79.76
